sensor_id;sensor_type;location;lat;lon;timestamp;P1;durP1;ratioP1;P2;durP2;ratioP2
45344;SDS011;31078;48.304;11.896;2023-02-04T00:00:15;4.65;;;3.47;;
45344;SDS011;31078;48.304;11.896;2023-02-04T00:02:43;5.70;;;3.28;;
45344;SDS011;31078;48.304;11.896;2023-02-04T00:05:11;4.88;;;2.90;;
45344;SDS011;31078;48.304;11.896;2023-02-04T00:07:38;3.90;;;2.50;;
45344;SDS011;31078;48.304;11.896;2023-02-04T00:10:26;6.50;;;3.08;;
45344;SDS011;31078;48.304;11.896;2023-02-04T00:12:53;6.53;;;3.47;;
45344;SDS011;31078;48.304;11.896;2023-02-04T00:15:27;4.90;;;3.28;;
45344;SDS011;31078;48.304;11.896;2023-02-04T00:17:55;5.35;;;3.25;;
45344;SDS011;31078;48.304;11.896;2023-02-04T00:20:22;7.20;;;3.00;;
45344;SDS011;31078;48.304;11.896;2023-02-04T00:22:49;6.38;;;3.20;;
45344;SDS011;31078;48.304;11.896;2023-02-04T00:25:16;7.82;;;2.92;;
45344;SDS011;31078;48.304;11.896;2023-02-04T00:27:44;10.90;;;2.90;;
45344;SDS011;31078;48.304;11.896;2023-02-04T00:30:12;11.25;;;3.67;;
45344;SDS011;31078;48.304;11.896;2023-02-04T00:32:39;9.02;;;2.80;;
45344;SDS011;31078;48.304;11.896;2023-02-04T00:35:06;10.90;;;2.92;;
45344;SDS011;31078;48.304;11.896;2023-02-04T00:37:33;13.00;;;2.92;;
45344;SDS011;31078;48.304;11.896;2023-02-04T00:40:00;7.85;;;2.60;;
45344;SDS011;31078;48.304;11.896;2023-02-04T00:42:27;6.60;;;2.65;;
45344;SDS011;31078;48.304;11.896;2023-02-04T00:44:55;7.18;;;2.47;;
45344;SDS011;31078;48.304;11.896;2023-02-04T00:47:22;7.55;;;2.85;;
45344;SDS011;31078;48.304;11.896;2023-02-04T00:49:59;6.43;;;2.80;;
45344;SDS011;31078;48.304;11.896;2023-02-04T00:52:26;8.38;;;3.13;;
45344;SDS011;31078;48.304;11.896;2023-02-04T00:54:53;9.70;;;3.10;;
45344;SDS011;31078;48.304;11.896;2023-02-04T00:57:19;9.93;;;2.90;;
45344;SDS011;31078;48.304;11.896;2023-02-04T00:59:49;7.93;;;2.97;;
45344;SDS011;31078;48.304;11.896;2023-02-04T01:02:17;13.70;;;3.30;;
45344;SDS011;31078;48.304;11.896;2023-02-04T01:04:49;6.93;;;2.95;;
45344;SDS011;31078;48.304;11.896;2023-02-04T01:07:16;14.25;;;3.40;;
45344;SDS011;31078;48.304;11.896;2023-02-04T01:09:43;8.73;;;2.90;;
45344;SDS011;31078;48.304;11.896;2023-02-04T01:12:10;8.95;;;2.90;;
45344;SDS011;31078;48.304;11.896;2023-02-04T01:14:36;15.50;;;3.75;;
45344;SDS011;31078;48.304;11.896;2023-02-04T01:17:03;13.32;;;4.15;;
45344;SDS011;31078;48.304;11.896;2023-02-04T01:19:32;17.80;;;3.45;;
45344;SDS011;31078;48.304;11.896;2023-02-04T01:21:58;9.82;;;3.50;;
45344;SDS011;31078;48.304;11.896;2023-02-04T01:24:49;11.73;;;3.25;;
45344;SDS011;31078;48.304;11.896;2023-02-04T01:27:19;17.35;;;3.90;;
45344;SDS011;31078;48.304;11.896;2023-02-04T01:30:27;12.75;;;3.30;;
45344;SDS011;31078;48.304;11.896;2023-02-04T01:32:54;9.35;;;3.22;;
45344;SDS011;31078;48.304;11.896;2023-02-04T01:35:25;15.80;;;3.67;;
45344;SDS011;31078;48.304;11.896;2023-02-04T01:37:52;10.90;;;3.40;;
45344;SDS011;31078;48.304;11.896;2023-02-04T01:40:18;15.38;;;4.18;;
45344;SDS011;31078;48.304;11.896;2023-02-04T01:42:46;14.48;;;4.10;;
45344;SDS011;31078;48.304;11.896;2023-02-04T01:45:13;18.95;;;4.32;;
45344;SDS011;31078;48.304;11.896;2023-02-04T01:47:40;15.60;;;4.40;;
45344;SDS011;31078;48.304;11.896;2023-02-04T01:50:08;9.95;;;3.58;;
45344;SDS011;31078;48.304;11.896;2023-02-04T01:52:37;9.80;;;3.40;;
45344;SDS011;31078;48.304;11.896;2023-02-04T01:55:05;10.38;;;3.28;;
45344;SDS011;31078;48.304;11.896;2023-02-04T01:57:38;14.13;;;4.07;;
45344;SDS011;31078;48.304;11.896;2023-02-04T02:00:05;12.50;;;3.33;;
45344;SDS011;31078;48.304;11.896;2023-02-04T02:02:37;14.50;;;3.78;;
45344;SDS011;31078;48.304;11.896;2023-02-04T02:05:08;17.08;;;3.65;;
45344;SDS011;31078;48.304;11.896;2023-02-04T02:07:37;11.40;;;3.20;;
45344;SDS011;31078;48.304;11.896;2023-02-04T02:10:04;14.63;;;4.30;;
45344;SDS011;31078;48.304;11.896;2023-02-04T02:12:33;15.00;;;4.20;;
45344;SDS011;31078;48.304;11.896;2023-02-04T02:14:59;12.27;;;3.40;;
45344;SDS011;31078;48.304;11.896;2023-02-04T02:17:27;9.43;;;3.20;;
45344;SDS011;31078;48.304;11.896;2023-02-04T02:19:54;17.38;;;4.05;;
45344;SDS011;31078;48.304;11.896;2023-02-04T02:22:22;16.92;;;3.45;;
45344;SDS011;31078;48.304;11.896;2023-02-04T02:24:53;16.65;;;4.40;;
45344;SDS011;31078;48.304;11.896;2023-02-04T02:27:20;12.77;;;3.55;;
45344;SDS011;31078;48.304;11.896;2023-02-04T02:29:47;9.70;;;3.80;;
45344;SDS011;31078;48.304;11.896;2023-02-04T02:32:14;12.13;;;3.67;;
45344;SDS011;31078;48.304;11.896;2023-02-04T02:34:41;14.50;;;4.00;;
45344;SDS011;31078;48.304;11.896;2023-02-04T02:37:10;15.38;;;3.38;;
45344;SDS011;31078;48.304;11.896;2023-02-04T02:39:37;20.48;;;3.28;;
45344;SDS011;31078;48.304;11.896;2023-02-04T02:42:08;11.77;;;3.10;;
45344;SDS011;31078;48.304;11.896;2023-02-04T02:44:35;15.15;;;3.20;;
45344;SDS011;31078;48.304;11.896;2023-02-04T02:47:02;14.55;;;3.17;;
45344;SDS011;31078;48.304;11.896;2023-02-04T02:49:29;15.80;;;3.20;;
45344;SDS011;31078;48.304;11.896;2023-02-04T02:51:59;11.20;;;3.00;;
45344;SDS011;31078;48.304;11.896;2023-02-04T02:54:26;15.85;;;3.42;;
45344;SDS011;31078;48.304;11.896;2023-02-04T02:56:55;14.07;;;3.08;;
45344;SDS011;31078;48.304;11.896;2023-02-04T02:59:24;13.85;;;2.83;;
45344;SDS011;31078;48.304;11.896;2023-02-04T03:01:52;15.77;;;3.30;;
45344;SDS011;31078;48.304;11.896;2023-02-04T03:04:23;11.43;;;3.10;;
45344;SDS011;31078;48.304;11.896;2023-02-04T03:06:51;17.45;;;2.85;;
45344;SDS011;31078;48.304;11.896;2023-02-04T03:09:21;13.30;;;3.00;;
45344;SDS011;31078;48.304;11.896;2023-02-04T03:11:49;14.60;;;3.08;;
45344;SDS011;31078;48.304;11.896;2023-02-04T03:14:15;13.35;;;3.15;;
45344;SDS011;31078;48.304;11.896;2023-02-04T03:16:44;12.65;;;3.03;;
45344;SDS011;31078;48.304;11.896;2023-02-04T03:19:13;9.75;;;2.70;;
45344;SDS011;31078;48.304;11.896;2023-02-04T03:21:39;12.48;;;3.30;;
45344;SDS011;31078;48.304;11.896;2023-02-04T03:24:07;15.07;;;2.95;;
45344;SDS011;31078;48.304;11.896;2023-02-04T03:26:34;20.25;;;3.20;;
45344;SDS011;31078;48.304;11.896;2023-02-04T03:29:00;14.30;;;2.92;;
45344;SDS011;31078;48.304;11.896;2023-02-04T03:31:27;13.00;;;3.22;;
45344;SDS011;31078;48.304;11.896;2023-02-04T03:33:55;14.75;;;3.05;;
45344;SDS011;31078;48.304;11.896;2023-02-04T03:36:22;15.15;;;3.00;;
45344;SDS011;31078;48.304;11.896;2023-02-04T03:38:48;11.30;;;2.72;;
45344;SDS011;31078;48.304;11.896;2023-02-04T03:41:16;16.30;;;3.15;;
45344;SDS011;31078;48.304;11.896;2023-02-04T03:43:43;10.95;;;2.28;;
45344;SDS011;31078;48.304;11.896;2023-02-04T03:46:09;15.45;;;2.75;;
45344;SDS011;31078;48.304;11.896;2023-02-04T03:48:36;12.88;;;3.35;;
45344;SDS011;31078;48.304;11.896;2023-02-04T03:51:04;13.50;;;2.75;;
45344;SDS011;31078;48.304;11.896;2023-02-04T03:53:31;11.13;;;2.72;;
45344;SDS011;31078;48.304;11.896;2023-02-04T03:55:57;11.23;;;2.67;;
45344;SDS011;31078;48.304;11.896;2023-02-04T03:58:24;15.57;;;3.20;;
45344;SDS011;31078;48.304;11.896;2023-02-04T04:00:50;10.55;;;2.65;;
45344;SDS011;31078;48.304;11.896;2023-02-04T04:03:17;20.33;;;3.95;;
45344;SDS011;31078;48.304;11.896;2023-02-04T04:05:43;13.55;;;2.45;;
45344;SDS011;31078;48.304;11.896;2023-02-04T04:08:11;20.17;;;3.50;;
45344;SDS011;31078;48.304;11.896;2023-02-04T04:10:38;11.07;;;2.95;;
45344;SDS011;31078;48.304;11.896;2023-02-04T04:13:04;10.32;;;2.67;;
45344;SDS011;31078;48.304;11.896;2023-02-04T04:15:31;10.68;;;2.42;;
45344;SDS011;31078;48.304;11.896;2023-02-04T04:17:58;13.35;;;3.42;;
45344;SDS011;31078;48.304;11.896;2023-02-04T04:20:24;14.30;;;3.40;;
45344;SDS011;31078;48.304;11.896;2023-02-04T04:22:52;12.48;;;2.30;;
45344;SDS011;31078;48.304;11.896;2023-02-04T04:25:20;11.73;;;2.65;;
45344;SDS011;31078;48.304;11.896;2023-02-04T04:27:47;12.32;;;2.63;;
45344;SDS011;31078;48.304;11.896;2023-02-04T04:30:13;8.77;;;2.40;;
45344;SDS011;31078;48.304;11.896;2023-02-04T04:32:40;12.60;;;2.92;;
45344;SDS011;31078;48.304;11.896;2023-02-04T04:35:06;10.02;;;2.95;;
45344;SDS011;31078;48.304;11.896;2023-02-04T04:37:33;19.48;;;2.97;;
45344;SDS011;31078;48.304;11.896;2023-02-04T04:40:00;10.88;;;2.53;;
45344;SDS011;31078;48.304;11.896;2023-02-04T04:42:28;16.58;;;3.08;;
45344;SDS011;31078;48.304;11.896;2023-02-04T04:44:54;13.95;;;2.80;;
45344;SDS011;31078;48.304;11.896;2023-02-04T04:47:21;14.73;;;2.92;;
45344;SDS011;31078;48.304;11.896;2023-02-04T04:49:47;15.70;;;3.15;;
45344;SDS011;31078;48.304;11.896;2023-02-04T04:52:14;11.02;;;2.78;;
45344;SDS011;31078;48.304;11.896;2023-02-04T04:54:40;14.00;;;2.60;;
45344;SDS011;31078;48.304;11.896;2023-02-04T04:57:07;11.93;;;2.45;;
45344;SDS011;31078;48.304;11.896;2023-02-04T04:59:35;15.60;;;2.85;;
45344;SDS011;31078;48.304;11.896;2023-02-04T05:02:01;14.52;;;3.08;;
45344;SDS011;31078;48.304;11.896;2023-02-04T05:04:28;20.13;;;3.20;;
45344;SDS011;31078;48.304;11.896;2023-02-04T05:06:54;16.35;;;3.10;;
45344;SDS011;31078;48.304;11.896;2023-02-04T05:09:21;13.95;;;3.10;;
45344;SDS011;31078;48.304;11.896;2023-02-04T05:11:48;18.42;;;3.08;;
45344;SDS011;31078;48.304;11.896;2023-02-04T05:14:14;13.00;;;3.35;;
45344;SDS011;31078;48.304;11.896;2023-02-04T05:16:42;15.20;;;2.95;;
45344;SDS011;31078;48.304;11.896;2023-02-04T05:19:09;14.77;;;3.55;;
45344;SDS011;31078;48.304;11.896;2023-02-04T05:21:35;14.68;;;3.08;;
45344;SDS011;31078;48.304;11.896;2023-02-04T05:24:02;17.02;;;3.33;;
45344;SDS011;31078;48.304;11.896;2023-02-04T05:26:30;16.50;;;3.70;;
45344;SDS011;31078;48.304;11.896;2023-02-04T05:28:56;9.18;;;2.65;;
45344;SDS011;31078;48.304;11.896;2023-02-04T05:31:25;15.65;;;3.40;;
45344;SDS011;31078;48.304;11.896;2023-02-04T05:33:52;15.85;;;3.22;;
45344;SDS011;31078;48.304;11.896;2023-02-04T05:36:19;13.80;;;2.60;;
45344;SDS011;31078;48.304;11.896;2023-02-04T05:38:49;13.88;;;3.42;;
45344;SDS011;31078;48.304;11.896;2023-02-04T05:41:15;13.18;;;3.13;;
45344;SDS011;31078;48.304;11.896;2023-02-04T05:43:42;12.63;;;3.20;;
45344;SDS011;31078;48.304;11.896;2023-02-04T05:46:08;14.93;;;2.92;;
45344;SDS011;31078;48.304;11.896;2023-02-04T05:48:35;14.40;;;3.53;;
45344;SDS011;31078;48.304;11.896;2023-02-04T05:51:05;13.25;;;2.53;;
45344;SDS011;31078;48.304;11.896;2023-02-04T05:53:32;10.50;;;2.60;;
45344;SDS011;31078;48.304;11.896;2023-02-04T05:55:58;13.55;;;3.03;;
45344;SDS011;31078;48.304;11.896;2023-02-04T05:58:25;16.70;;;2.83;;
45344;SDS011;31078;48.304;11.896;2023-02-04T06:00:58;15.55;;;3.22;;
45344;SDS011;31078;48.304;11.896;2023-02-04T06:03:25;11.55;;;2.83;;
45344;SDS011;31078;48.304;11.896;2023-02-04T06:05:51;14.60;;;2.67;;
45344;SDS011;31078;48.304;11.896;2023-02-04T06:08:19;14.23;;;2.38;;
45344;SDS011;31078;48.304;11.896;2023-02-04T06:10:46;15.82;;;2.58;;
45344;SDS011;31078;48.304;11.896;2023-02-04T06:13:14;9.82;;;2.85;;
45344;SDS011;31078;48.304;11.896;2023-02-04T06:15:41;11.52;;;3.05;;
45344;SDS011;31078;48.304;11.896;2023-02-04T06:18:07;7.45;;;2.53;;
45344;SDS011;31078;48.304;11.896;2023-02-04T06:20:34;12.10;;;2.53;;
45344;SDS011;31078;48.304;11.896;2023-02-04T06:23:00;11.27;;;2.30;;
45344;SDS011;31078;48.304;11.896;2023-02-04T06:25:28;11.82;;;2.40;;
45344;SDS011;31078;48.304;11.896;2023-02-04T06:27:55;18.77;;;2.85;;
45344;SDS011;31078;48.304;11.896;2023-02-04T06:30:24;15.05;;;3.05;;
45344;SDS011;31078;48.304;11.896;2023-02-04T06:32:52;12.77;;;2.65;;
45344;SDS011;31078;48.304;11.896;2023-02-04T06:35:19;10.57;;;2.70;;
45344;SDS011;31078;48.304;11.896;2023-02-04T06:37:46;17.73;;;3.00;;
45344;SDS011;31078;48.304;11.896;2023-02-04T06:40:13;10.95;;;2.50;;
45344;SDS011;31078;48.304;11.896;2023-02-04T06:42:41;9.73;;;2.67;;
45344;SDS011;31078;48.304;11.896;2023-02-04T06:45:08;11.57;;;2.58;;
45344;SDS011;31078;48.304;11.896;2023-02-04T06:47:34;14.57;;;2.65;;
45344;SDS011;31078;48.304;11.896;2023-02-04T06:50:01;14.73;;;3.08;;
45344;SDS011;31078;48.304;11.896;2023-02-04T06:52:28;13.27;;;2.58;;
45344;SDS011;31078;48.304;11.896;2023-02-04T06:54:54;12.18;;;2.75;;
45344;SDS011;31078;48.304;11.896;2023-02-04T06:57:21;9.20;;;2.08;;
45344;SDS011;31078;48.304;11.896;2023-02-04T06:59:49;15.48;;;3.13;;
45344;SDS011;31078;48.304;11.896;2023-02-04T07:02:16;7.45;;;2.10;;
45344;SDS011;31078;48.304;11.896;2023-02-04T07:04:42;12.93;;;3.30;;
45344;SDS011;31078;48.304;11.896;2023-02-04T07:07:09;13.90;;;3.38;;
45344;SDS011;31078;48.304;11.896;2023-02-04T07:09:35;12.63;;;2.85;;
45344;SDS011;31078;48.304;11.896;2023-02-04T07:12:04;13.27;;;3.05;;
45344;SDS011;31078;48.304;11.896;2023-02-04T07:14:31;7.78;;;2.25;;
45344;SDS011;31078;48.304;11.896;2023-02-04T07:16:59;13.20;;;2.60;;
45344;SDS011;31078;48.304;11.896;2023-02-04T07:19:25;6.50;;;2.10;;
45344;SDS011;31078;48.304;11.896;2023-02-04T07:21:52;8.45;;;2.45;;
45344;SDS011;31078;48.304;11.896;2023-02-04T07:24:20;9.23;;;2.55;;
45344;SDS011;31078;48.304;11.896;2023-02-04T07:26:47;10.25;;;2.78;;
45344;SDS011;31078;48.304;11.896;2023-02-04T07:29:14;11.45;;;2.45;;
45344;SDS011;31078;48.304;11.896;2023-02-04T07:31:40;10.00;;;3.03;;
45344;SDS011;31078;48.304;11.896;2023-02-04T07:34:10;11.18;;;2.75;;
45344;SDS011;31078;48.304;11.896;2023-02-04T07:36:37;10.73;;;3.00;;
45344;SDS011;31078;48.304;11.896;2023-02-04T07:39:04;9.18;;;2.30;;
45344;SDS011;31078;48.304;11.896;2023-02-04T07:41:30;11.13;;;2.22;;
45344;SDS011;31078;48.304;11.896;2023-02-04T07:43:57;10.60;;;2.58;;
45344;SDS011;31078;48.304;11.896;2023-02-04T07:46:23;11.20;;;2.00;;
45344;SDS011;31078;48.304;11.896;2023-02-04T07:48:50;10.65;;;2.38;;
45344;SDS011;31078;48.304;11.896;2023-02-04T07:51:18;13.90;;;2.70;;
45344;SDS011;31078;48.304;11.896;2023-02-04T07:53:44;10.38;;;2.50;;
45344;SDS011;31078;48.304;11.896;2023-02-04T07:56:11;13.32;;;2.65;;
45344;SDS011;31078;48.304;11.896;2023-02-04T07:58:37;10.63;;;2.58;;
45344;SDS011;31078;48.304;11.896;2023-02-04T08:01:04;11.43;;;2.63;;
45344;SDS011;31078;48.304;11.896;2023-02-04T08:03:31;7.60;;;2.58;;
45344;SDS011;31078;48.304;11.896;2023-02-04T08:05:57;14.73;;;2.63;;
45344;SDS011;31078;48.304;11.896;2023-02-04T08:08:25;14.35;;;2.60;;
45344;SDS011;31078;48.304;11.896;2023-02-04T08:10:51;11.27;;;2.45;;
45344;SDS011;31078;48.304;11.896;2023-02-04T08:13:18;11.23;;;2.53;;
45344;SDS011;31078;48.304;11.896;2023-02-04T08:15:44;12.57;;;2.00;;
45344;SDS011;31078;48.304;11.896;2023-02-04T08:18:11;14.48;;;2.83;;
45344;SDS011;31078;48.304;11.896;2023-02-04T08:20:37;10.68;;;2.67;;
45344;SDS011;31078;48.304;11.896;2023-02-04T08:23:04;9.60;;;2.30;;
45344;SDS011;31078;48.304;11.896;2023-02-04T08:25:32;16.20;;;2.67;;
45344;SDS011;31078;48.304;11.896;2023-02-04T08:27:58;11.18;;;2.75;;
45344;SDS011;31078;48.304;11.896;2023-02-04T08:30:25;9.25;;;2.60;;
45344;SDS011;31078;48.304;11.896;2023-02-04T08:32:53;9.88;;;2.53;;
45344;SDS011;31078;48.304;11.896;2023-02-04T08:35:20;14.13;;;2.85;;
45344;SDS011;31078;48.304;11.896;2023-02-04T08:37:47;8.88;;;2.10;;
45344;SDS011;31078;48.304;11.896;2023-02-04T08:40:13;9.70;;;2.17;;
45344;SDS011;31078;48.304;11.896;2023-02-04T08:42:41;9.90;;;2.50;;
45344;SDS011;31078;48.304;11.896;2023-02-04T08:45:08;13.77;;;2.47;;
45344;SDS011;31078;48.304;11.896;2023-02-04T08:47:35;11.88;;;2.10;;
45344;SDS011;31078;48.304;11.896;2023-02-04T08:50:02;8.90;;;2.20;;
45344;SDS011;31078;48.304;11.896;2023-02-04T08:52:28;3.03;;;1.10;;
45344;SDS011;31078;48.304;11.896;2023-02-04T08:54:55;7.57;;;1.50;;
45344;SDS011;31078;48.304;11.896;2023-02-04T08:57:21;4.38;;;1.83;;
45344;SDS011;31078;48.304;11.896;2023-02-04T08:59:50;3.75;;;1.20;;
45344;SDS011;31078;48.304;11.896;2023-02-04T09:02:16;5.82;;;2.33;;
45344;SDS011;31078;48.304;11.896;2023-02-04T09:04:43;3.55;;;1.50;;
45344;SDS011;31078;48.304;11.896;2023-02-04T09:07:09;3.30;;;1.42;;
45344;SDS011;31078;48.304;11.896;2023-02-04T09:09:36;4.78;;;2.17;;
45344;SDS011;31078;48.304;11.896;2023-02-04T09:12:03;4.90;;;1.83;;
45344;SDS011;31078;48.304;11.896;2023-02-04T09:14:29;8.23;;;2.80;;
45344;SDS011;31078;48.304;11.896;2023-02-04T09:16:57;6.07;;;2.47;;
45344;SDS011;31078;48.304;11.896;2023-02-04T09:19:23;7.70;;;2.33;;
45344;SDS011;31078;48.304;11.896;2023-02-04T09:21:50;3.30;;;1.92;;
45344;SDS011;31078;48.304;11.896;2023-02-04T09:24:17;3.65;;;2.08;;
45344;SDS011;31078;48.304;11.896;2023-02-04T09:26:43;4.20;;;2.10;;
45344;SDS011;31078;48.304;11.896;2023-02-04T09:29:10;6.68;;;3.42;;
45344;SDS011;31078;48.304;11.896;2023-02-04T09:31:36;6.50;;;3.17;;
45344;SDS011;31078;48.304;11.896;2023-02-04T09:34:04;5.40;;;2.50;;
45344;SDS011;31078;48.304;11.896;2023-02-04T09:36:31;2.72;;;1.80;;
45344;SDS011;31078;48.304;11.896;2023-02-04T09:39:02;4.60;;;1.85;;
45344;SDS011;31078;48.304;11.896;2023-02-04T09:41:30;3.47;;;1.67;;
45344;SDS011;31078;48.304;11.896;2023-02-04T09:43:56;4.70;;;2.20;;
45344;SDS011;31078;48.304;11.896;2023-02-04T09:46:24;3.88;;;2.30;;
45344;SDS011;31078;48.304;11.896;2023-02-04T09:48:54;6.38;;;2.33;;
45344;SDS011;31078;48.304;11.896;2023-02-04T09:51:24;4.15;;;2.45;;
45344;SDS011;31078;48.304;11.896;2023-02-04T09:53:52;4.18;;;2.30;;
45344;SDS011;31078;48.304;11.896;2023-02-04T09:56:21;7.05;;;2.30;;
45344;SDS011;31078;48.304;11.896;2023-02-04T09:58:47;4.07;;;1.98;;
45344;SDS011;31078;48.304;11.896;2023-02-04T10:01:15;6.80;;;1.98;;
45344;SDS011;31078;48.304;11.896;2023-02-04T10:03:44;3.28;;;1.98;;
45344;SDS011;31078;48.304;11.896;2023-02-04T10:06:14;4.07;;;2.03;;
45344;SDS011;31078;48.304;11.896;2023-02-04T10:08:44;4.63;;;2.08;;
45344;SDS011;31078;48.304;11.896;2023-02-04T10:11:11;3.80;;;2.00;;
45344;SDS011;31078;48.304;11.896;2023-02-04T10:13:40;3.47;;;1.58;;
45344;SDS011;31078;48.304;11.896;2023-02-04T10:16:11;5.50;;;1.83;;
45344;SDS011;31078;48.304;11.896;2023-02-04T10:18:40;4.63;;;2.10;;
45344;SDS011;31078;48.304;11.896;2023-02-04T10:21:11;5.03;;;2.63;;
45344;SDS011;31078;48.304;11.896;2023-02-04T10:23:45;9.45;;;2.63;;
45344;SDS011;31078;48.304;11.896;2023-02-04T10:26:15;5.55;;;2.58;;
45344;SDS011;31078;48.304;11.896;2023-02-04T10:28:42;4.75;;;1.98;;
45344;SDS011;31078;48.304;11.896;2023-02-04T10:31:26;3.78;;;2.15;;
45344;SDS011;31078;48.304;11.896;2023-02-04T10:34:11;3.00;;;1.70;;
45344;SDS011;31078;48.304;11.896;2023-02-04T10:36:40;3.58;;;2.08;;
45344;SDS011;31078;48.304;11.896;2023-02-04T10:39:14;4.22;;;2.40;;
45344;SDS011;31078;48.304;11.896;2023-02-04T10:41:46;7.15;;;2.50;;
45344;SDS011;31078;48.304;11.896;2023-02-04T10:44:15;5.20;;;2.40;;
45344;SDS011;31078;48.304;11.896;2023-02-04T10:46:43;4.28;;;2.28;;
45344;SDS011;31078;48.304;11.896;2023-02-04T10:49:17;3.55;;;1.92;;
45344;SDS011;31078;48.304;11.896;2023-02-04T10:51:45;2.63;;;1.55;;
45344;SDS011;31078;48.304;11.896;2023-02-04T10:54:14;2.65;;;1.52;;
45344;SDS011;31078;48.304;11.896;2023-02-04T10:59:32;2.65;;;1.65;;
45344;SDS011;31078;48.304;11.896;2023-02-04T11:01:59;4.75;;;2.15;;
45344;SDS011;31078;48.304;11.896;2023-02-04T11:04:28;2.80;;;1.90;;
45344;SDS011;31078;48.304;11.896;2023-02-04T11:06:56;2.88;;;2.15;;
45344;SDS011;31078;48.304;11.896;2023-02-04T11:09:25;3.88;;;2.25;;
45344;SDS011;31078;48.304;11.896;2023-02-04T11:11:51;5.63;;;2.40;;
45344;SDS011;31078;48.304;11.896;2023-02-04T11:14:25;3.05;;;2.10;;
45344;SDS011;31078;48.304;11.896;2023-02-04T11:16:53;4.13;;;2.13;;
45344;SDS011;31078;48.304;11.896;2023-02-04T11:19:35;4.03;;;2.17;;
45344;SDS011;31078;48.304;11.896;2023-02-04T11:22:03;4.80;;;2.25;;
45344;SDS011;31078;48.304;11.896;2023-02-04T11:24:39;6.40;;;2.70;;
45344;SDS011;31078;48.304;11.896;2023-02-04T11:27:06;4.55;;;2.15;;
45344;SDS011;31078;48.304;11.896;2023-02-04T11:29:44;3.40;;;2.00;;
45344;SDS011;31078;48.304;11.896;2023-02-04T11:32:25;4.07;;;1.90;;
45344;SDS011;31078;48.304;11.896;2023-02-04T11:34:54;3.67;;;2.00;;
45344;SDS011;31078;48.304;11.896;2023-02-04T11:37:34;2.92;;;1.95;;
45344;SDS011;31078;48.304;11.896;2023-02-04T11:40:11;4.50;;;2.00;;
45344;SDS011;31078;48.304;11.896;2023-02-04T11:42:46;4.75;;;1.90;;
45344;SDS011;31078;48.304;11.896;2023-02-04T11:45:14;3.08;;;1.80;;
45344;SDS011;31078;48.304;11.896;2023-02-04T11:47:47;2.97;;;1.70;;
45344;SDS011;31078;48.304;11.896;2023-02-04T11:50:18;2.72;;;1.50;;
45344;SDS011;31078;48.304;11.896;2023-02-04T11:52:48;3.13;;;1.50;;
45344;SDS011;31078;48.304;11.896;2023-02-04T11:55:16;3.35;;;1.70;;
45344;SDS011;31078;48.304;11.896;2023-02-04T11:57:44;3.35;;;1.58;;
45344;SDS011;31078;48.304;11.896;2023-02-04T12:02:41;6.00;;;1.50;;
45344;SDS011;31078;48.304;11.896;2023-02-04T12:05:10;4.30;;;1.90;;
45344;SDS011;31078;48.304;11.896;2023-02-04T12:07:38;1.92;;;1.13;;
45344;SDS011;31078;48.304;11.896;2023-02-04T12:10:12;1.70;;;1.25;;
45344;SDS011;31078;48.304;11.896;2023-02-04T12:12:49;1.83;;;1.27;;
45344;SDS011;31078;48.304;11.896;2023-02-04T12:15:19;1.73;;;1.25;;
45344;SDS011;31078;48.304;11.896;2023-02-04T12:17:58;2.20;;;1.38;;
45344;SDS011;31078;48.304;11.896;2023-02-04T12:20:26;1.27;;;1.00;;
45344;SDS011;31078;48.304;11.896;2023-02-04T12:22:52;2.42;;;1.10;;
45344;SDS011;31078;48.304;11.896;2023-02-04T12:25:19;2.13;;;1.23;;
45344;SDS011;31078;48.304;11.896;2023-02-04T12:27:45;1.67;;;1.08;;
45344;SDS011;31078;48.304;11.896;2023-02-04T12:30:14;2.38;;;1.25;;
45344;SDS011;31078;48.304;11.896;2023-02-04T12:32:42;1.98;;;1.05;;
45344;SDS011;31078;48.304;11.896;2023-02-04T12:35:09;2.83;;;1.27;;
45344;SDS011;31078;48.304;11.896;2023-02-04T12:37:35;0.95;;;0.80;;
45344;SDS011;31078;48.304;11.896;2023-02-04T12:40:02;2.22;;;0.75;;
45344;SDS011;31078;48.304;11.896;2023-02-04T12:42:29;1.85;;;0.60;;
45344;SDS011;31078;48.304;11.896;2023-02-04T12:44:56;1.38;;;0.85;;
45344;SDS011;31078;48.304;11.896;2023-02-04T12:47:24;1.17;;;0.63;;
45344;SDS011;31078;48.304;11.896;2023-02-04T12:49:51;2.92;;;0.80;;
45344;SDS011;31078;48.304;11.896;2023-02-04T12:52:18;0.95;;;0.80;;
45344;SDS011;31078;48.304;11.896;2023-02-04T12:54:44;2.08;;;0.90;;
45344;SDS011;31078;48.304;11.896;2023-02-04T12:57:11;1.75;;;1.00;;
45344;SDS011;31078;48.304;11.896;2023-02-04T12:59:39;2.42;;;0.80;;
45344;SDS011;31078;48.304;11.896;2023-02-04T13:02:05;4.10;;;1.00;;
45344;SDS011;31078;48.304;11.896;2023-02-04T13:04:33;3.58;;;1.00;;
45344;SDS011;31078;48.304;11.896;2023-02-04T13:07:00;3.42;;;1.55;;
45344;SDS011;31078;48.304;11.896;2023-02-04T13:09:27;2.03;;;1.13;;
45344;SDS011;31078;48.304;11.896;2023-02-04T13:11:53;2.45;;;1.10;;
45344;SDS011;31078;48.304;11.896;2023-02-04T13:14:20;1.30;;;0.80;;
45344;SDS011;31078;48.304;11.896;2023-02-04T13:16:46;3.15;;;0.82;;
45344;SDS011;31078;48.304;11.896;2023-02-04T13:19:13;1.77;;;1.00;;
45344;SDS011;31078;48.304;11.896;2023-02-04T13:21:41;1.98;;;0.70;;
45344;SDS011;31078;48.304;11.896;2023-02-04T13:24:07;2.00;;;0.85;;
45344;SDS011;31078;48.304;11.896;2023-02-04T13:26:34;1.88;;;1.10;;
45344;SDS011;31078;48.304;11.896;2023-02-04T13:29:00;5.63;;;1.17;;
45344;SDS011;31078;48.304;11.896;2023-02-04T13:31:27;3.33;;;1.20;;
45344;SDS011;31078;48.304;11.896;2023-02-04T13:33:53;4.70;;;1.23;;
45344;SDS011;31078;48.304;11.896;2023-02-04T13:36:20;4.82;;;1.95;;
45344;SDS011;31078;48.304;11.896;2023-02-04T13:38:48;2.60;;;1.40;;
45344;SDS011;31078;48.304;11.896;2023-02-04T13:41:14;3.05;;;1.27;;
45344;SDS011;31078;48.304;11.896;2023-02-04T13:43:41;4.65;;;1.20;;
45344;SDS011;31078;48.304;11.896;2023-02-04T13:46:07;2.72;;;0.98;;
45344;SDS011;31078;48.304;11.896;2023-02-04T13:48:34;2.17;;;1.10;;
45344;SDS011;31078;48.304;11.896;2023-02-04T13:51:00;1.92;;;1.10;;
45344;SDS011;31078;48.304;11.896;2023-02-04T13:53:27;2.55;;;1.30;;
45344;SDS011;31078;48.304;11.896;2023-02-04T13:55:56;1.70;;;1.00;;
45344;SDS011;31078;48.304;11.896;2023-02-04T13:58:23;6.82;;;1.17;;
45344;SDS011;31078;48.304;11.896;2023-02-04T14:00:50;3.58;;;1.38;;
45344;SDS011;31078;48.304;11.896;2023-02-04T14:03:21;2.95;;;1.20;;
45344;SDS011;31078;48.304;11.896;2023-02-04T14:05:47;3.35;;;1.17;;
45344;SDS011;31078;48.304;11.896;2023-02-04T14:08:14;1.08;;;0.90;;
45344;SDS011;31078;48.304;11.896;2023-02-04T14:10:41;1.83;;;1.00;;
45344;SDS011;31078;48.304;11.896;2023-02-04T14:13:09;2.50;;;0.70;;
45344;SDS011;31078;48.304;11.896;2023-02-04T14:15:35;2.33;;;0.82;;
45344;SDS011;31078;48.304;11.896;2023-02-04T14:18:03;1.63;;;0.70;;
45344;SDS011;31078;48.304;11.896;2023-02-04T14:20:30;1.05;;;0.77;;
45344;SDS011;31078;48.304;11.896;2023-02-04T14:22:56;2.33;;;1.02;;
45344;SDS011;31078;48.304;11.896;2023-02-04T14:25:23;1.48;;;0.73;;
45344;SDS011;31078;48.304;11.896;2023-02-04T14:27:50;3.42;;;1.02;;
45344;SDS011;31078;48.304;11.896;2023-02-04T14:30:18;2.70;;;1.15;;
45344;SDS011;31078;48.304;11.896;2023-02-04T14:32:46;2.33;;;1.00;;
45344;SDS011;31078;48.304;11.896;2023-02-04T14:35:13;2.90;;;0.98;;
45344;SDS011;31078;48.304;11.896;2023-02-04T14:37:40;1.35;;;1.00;;